Hlavní strana
METAR-TAF:

METAR-TAF

Letiště :

Dakar, Senegal

zeměpisná šířka: 14-44N, zeměpisná délka: 017-30W, výška: 27 m

Aktuální stav počasí

Zpráva byla vytvořena před 56 minutami, v 04:00 UTC
Severní vítr 10 kt
Teplota 22°C
Vlhkost vzduchu 88%
Tlak 1014 hPa
Viditelnost: 8000 m

METAR: GOOY 170400Z 36010KT 8000 NSC 22/20 Q1014

Čas: 04:56 (04:56 UTC)

Předpověď počasí

Zpráva byla vytvořena před 5 hodinami a 26 minutami, v 23:30 UTC
Předpověď platná od 17 v 00 UTC do 18 v 06 UTC
Severní vítr 10 kt
Viditelnost: 8000 m

TAF: GOOY 162330Z 1700/1806 36010KT 8000 NSC

Stav a předpovědi počasí z více než 4 000 letišť (zprávy METAR a TAF).

Červené a žluté tečky na mapě představují dostupné meteorologické stanice.

Když kurzor umístíte na tečku, zobrazí se název stanice.

Pak kliknutím zobrazíte stav a předpověď počasí.

Chcete-li změnit mapu, kliknutím na zelené tlačítko se znaménkem +mapu přiblížíte, kliknutím na zelené tlačítko se znaménkem – mapu oddálíte a kliknutím na zelené šipky přejdete na sousední mapy.


METAR-TAF: